Time;durP1;ratioP1;P1;durP2;ratioP2;P2;SDS_P1;SDS_P2;PMS_P1;PMS_P2;Temp;Humidity;BMP_temperature;BMP_pressure;BME280_temperature;BME280_humidity;BME280_pressure;Samples;Min_cycle;Max_cycle;Signal;HPM_P1;HPM_P2
2023/04/01 00:02:47;;;;;;;15.23;7.95;;;;;;;;;;8330264;28;20370;-80
2023/04/01 00:06:51;;;;;;;13.00;7.28;;;;;;;;;;8330294;28;20491;-80
2023/04/01 00:10:54;;;;;;;17.02;8.65;;;;;;;;;;8329563;28;20053;-81
2023/04/01 00:14:59;;;;;;;12.18;7.43;;;;;;;;;;8330152;28;20053;-80
2023/04/01 00:19:02;;;;;;;12.70;6.90;;;;;;;;;;8329381;28;20046;-80
2023/04/01 00:23:05;;;;;;;16.70;7.90;;;;;;;;;;8329378;28;20049;-88
2023/04/01 00:27:08;;;;;;;11.90;6.03;;;;;;;;;;8329451;28;20119;-81
2023/04/01 00:31:13;;;;;;;13.30;7.30;;;;;;;;;;8328516;28;20050;-86
2023/04/01 00:35:16;;;;;;;13.07;8.35;;;;;;;;;;8328798;28;20038;-86
2023/04/01 00:39:19;;;;;;;12.05;7.57;;;;;;;;;;8316454;28;20046;-86
2023/04/01 00:43:23;;;;;;;16.05;7.68;;;;;;;;;;8334264;28;20452;-79
2023/04/01 00:47:28;;;;;;;16.75;8.35;;;;;;;;;;8335564;28;20057;-79
2023/04/01 00:51:35;;;;;;;15.90;8.68;;;;;;;;;;8335856;28;20041;-84
2023/04/01 00:55:42;;;;;;;16.42;8.18;;;;;;;;;;8336236;28;20042;-83
2023/04/01 00:59:49;;;;;;;16.23;7.53;;;;;;;;;;8335158;28;20051;-79
2023/04/01 01:03:54;;;;;;;15.75;7.97;;;;;;;;;;8335477;28;20045;-82
2023/04/01 01:08:06;;;;;;;14.50;8.15;;;;;;;;;;8334936;28;20048;-89
2023/04/01 01:12:15;;;;;;;17.92;8.23;;;;;;;;;;8334723;28;20176;-79
2023/04/01 01:16:25;;;;;;;14.57;8.35;;;;;;;;;;8334949;28;20059;-80
2023/04/01 01:20:51;;;;;;;15.65;7.85;;;;;;;;;;8335259;28;20053;-79
2023/04/01 01:25:03;;;;;;;12.57;6.72;;;;;;;;;;8335099;28;20055;-80
2023/04/01 01:29:17;;;;;;;13.13;7.43;;;;;;;;;;8309556;28;20061;-79
2023/04/01 01:33:41;;;;;;;14.30;7.88;;;;;;;;;;8334244;28;20050;-85
2023/04/01 01:37:48;;;;;;;16.60;8.18;;;;;;;;;;8334427;28;20490;-81
2023/04/01 01:41:51;;;;;;;16.33;8.60;;;;;;;;;;8333498;28;20520;-79
2023/04/01 01:45:56;;;;;;;14.20;8.50;;;;;;;;;;8334186;28;20041;-80
2023/04/01 01:50:01;;;;;;;19.23;9.50;;;;;;;;;;8333611;28;20046;-80
2023/04/01 01:54:05;;;;;;;17.95;9.68;;;;;;;;;;8332563;28;20041;-81
2023/04/01 01:58:13;;;;;;;18.10;9.75;;;;;;;;;;8329027;28;20045;-84
2023/04/01 02:02:17;;;;;;;17.83;9.65;;;;;;;;;;8326793;28;20049;-79
2023/04/01 02:06:23;;;;;;;19.55;10.13;;;;;;;;;;8333614;28;20053;-86
2023/04/01 02:10:32;;;;;;;22.08;9.98;;;;;;;;;;8333470;28;20091;-81
2023/04/01 02:14:41;;;;;;;22.60;9.88;;;;;;;;;;8309461;28;20037;-82
2023/04/01 02:18:46;;;;;;;20.00;9.88;;;;;;;;;;8332409;28;20049;-79
2023/04/01 02:22:52;;;;;;;20.52;10.13;;;;;;;;;;8333080;28;20037;-80
2023/04/01 02:26:57;;;;;;;21.48;9.80;;;;;;;;;;8332936;28;20049;-84
2023/04/01 02:31:02;;;;;;;20.90;9.68;;;;;;;;;;8332580;28;20049;-80
2023/04/01 02:35:07;;;;;;;21.38;10.43;;;;;;;;;;8332181;28;20079;-84
2023/04/01 02:39:10;;;;;;;23.08;9.63;;;;;;;;;;8332494;28;20478;-87
2023/04/01 02:43:14;;;;;;;20.13;10.32;;;;;;;;;;8331597;28;20057;-81
2023/04/01 02:47:17;;;;;;;28.77;12.57;;;;;;;;;;8332127;28;20099;-84
2023/04/01 02:51:20;;;;;;;21.10;10.13;;;;;;;;;;8331880;28;20548;-80
2023/04/01 02:55:23;;;;;;;17.60;9.65;;;;;;;;;;8331878;28;20496;-80
2023/04/01 02:59:27;;;;;;;24.77;10.43;;;;;;;;;;8331421;28;20049;-89
2023/04/01 03:03:30;;;;;;;26.45;12.32;;;;;;;;;;8330815;28;20053;-80
2023/04/01 03:07:32;;;;;;;28.48;13.70;;;;;;;;;;8331371;28;20045;-80
2023/04/01 03:11:35;;;;;;;26.92;12.20;;;;;;;;;;8331267;28;20056;-80
2023/04/01 03:15:40;;;;;;;24.95;12.30;;;;;;;;;;8331078;28;20041;-87
2023/04/01 03:19:42;;;;;;;23.00;13.55;;;;;;;;;;8330965;28;20046;-88
2023/04/01 03:23:45;;;;;;;21.52;10.38;;;;;;;;;;8330258;28;20103;-86
2023/04/01 03:27:48;;;;;;;23.42;10.70;;;;;;;;;;8331689;28;20111;-85
2023/04/01 03:31:52;;;;;;;20.33;10.13;;;;;;;;;;8330709;28;20037;-89
2023/04/01 03:35:55;;;;;;;19.52;10.45;;;;;;;;;;8330548;28;20501;-87
2023/04/01 03:39:58;;;;;;;84.88;32.10;;;;;;;;;;8330231;28;20054;-81
2023/04/01 03:44:00;;;;;;;33.90;19.15;;;;;;;;;;8331152;28;20049;-84
2023/04/01 03:48:05;;;;;;;26.08;15.18;;;;;;;;;;8327336;28;20052;-81
2023/04/01 03:52:10;;;;;;;18.45;11.25;;;;;;;;;;8320957;28;20045;-88
2023/04/01 03:56:13;;;;;;;16.35;10.60;;;;;;;;;;8330942;28;20060;-80
2023/04/01 04:00:16;;;;;;;13.38;7.72;;;;;;;;;;8329975;28;20045;-83
2023/04/01 04:04:21;;;;;;;14.13;8.30;;;;;;;;;;8297753;28;20069;-79
2023/04/01 04:08:24;;;;;;;16.35;8.00;;;;;;;;;;8329578;28;20100;-80
2023/04/01 04:12:27;;;;;;;12.00;7.78;;;;;;;;;;8319921;28;20405;-80
2023/04/01 04:16:30;;;;;;;15.95;7.43;;;;;;;;;;8323763;28;20041;-87
2023/04/01 04:20:34;;;;;;;19.27;10.27;;;;;;;;;;8327684;28;20045;-79
2023/04/01 04:24:38;;;;;;;13.75;7.90;;;;;;;;;;8318792;28;20056;-81
2023/04/01 04:28:41;;;;;;;15.00;8.38;;;;;;;;;;8301494;28;20386;-80
2023/04/01 04:32:43;;;;;;;13.80;8.32;;;;;;;;;;8304762;28;20068;-81
2023/04/01 04:36:48;;;;;;;13.73;8.02;;;;;;;;;;8310967;28;20442;-82
2023/04/01 04:40:50;;;;;;;13.07;7.95;;;;;;;;;;8306764;28;20046;-83
2023/04/01 04:44:53;;;;;;;15.50;9.45;;;;;;;;;;8308684;28;20061;-84
2023/04/01 04:48:56;;;;;;;17.20;8.13;;;;;;;;;;8328822;28;20042;-80
2023/04/01 04:53:01;;;;;;;13.00;7.90;;;;;;;;;;8329098;28;20050;-80
2023/04/01 04:57:04;;;;;;;16.38;7.55;;;;;;;;;;8329434;28;20128;-80
2023/04/01 05:01:08;;;;;;;14.85;7.72;;;;;;;;;;8328990;28;20132;-87
2023/04/01 05:05:11;;;;;;;15.75;7.78;;;;;;;;;;8328596;28;20063;-80
2023/04/01 05:09:16;;;;;;;15.32;7.20;;;;;;;;;;8328931;28;20068;-82
2023/04/01 05:13:20;;;;;;;14.07;7.97;;;;;;;;;;8328370;28;20088;-81
2023/04/01 05:17:23;;;;;;;14.23;7.20;;;;;;;;;;8328458;28;20049;-80
2023/04/01 05:21:26;;;;;;;13.40;7.05;;;;;;;;;;8329045;28;20046;-80
2023/04/01 05:25:30;;;;;;;16.45;7.65;;;;;;;;;;8328680;28;20390;-79
2023/04/01 05:29:34;;;;;;;13.52;7.28;;;;;;;;;;8333983;28;20052;-80
2023/04/01 05:33:37;;;;;;;11.95;7.43;;;;;;;;;;8332731;28;20049;-79
2023/04/01 05:37:40;;;;;;;14.07;7.53;;;;;;;;;;8334835;28;20056;-82
2023/04/01 05:41:44;;;;;;;14.43;7.55;;;;;;;;;;8333982;28;20056;-80
2023/04/01 05:45:47;;;;;;;15.43;7.47;;;;;;;;;;8334277;28;20041;-83
2023/04/01 05:49:50;;;;;;;14.57;7.40;;;;;;;;;;8310409;28;20071;-80
2023/04/01 05:53:53;;;;;;;14.43;7.32;;;;;;;;;;8299186;28;20128;-80
2023/04/01 05:57:58;;;;;;;10.18;6.18;;;;;;;;;;8329521;28;20038;-81
2023/04/01 06:02:01;;;;;;;10.32;5.95;;;;;;;;;;8309898;28;20136;-80
2023/04/01 06:06:04;;;;;;;10.93;6.13;;;;;;;;;;8312878;28;20573;-82
2023/04/01 06:10:14;;;;;;;10.50;5.55;;;;;;;;;;8297767;28;20126;-80
2023/04/01 06:14:28;;;;;;;9.98;5.80;;;;;;;;;;8318124;28;20406;-82
2023/04/01 06:18:52;;;;;;;9.25;5.53;;;;;;;;;;8324304;28;20042;-81
2023/04/01 06:23:13;;;;;;;8.77;5.40;;;;;;;;;;8333858;28;20099;-79
2023/04/01 06:27:19;;;;;;;;;;;;;;;;;;8333523;28;20046;-79
2023/04/01 06:31:37;;;;;;;9.75;5.85;;;;;;;;;;8333222;28;19928;-80
2023/04/01 06:36:00;;;;;;;9.77;5.22;;;;;;;;;;8309038;28;20144;-90
2023/04/01 06:40:30;;;;;;;11.68;5.68;;;;;;;;;;8329779;28;20391;-79
2023/04/01 06:44:42;;;;;;;8.57;5.20;;;;;;;;;;8327137;28;20049;-79
2023/04/01 06:49:03;;;;;;;11.93;5.57;;;;;;;;;;8332922;28;20076;-79
2023/04/01 06:53:12;;;;;;;11.30;6.03;;;;;;;;;;8332658;28;20133;-80
2023/04/01 06:57:23;;;;;;;10.18;5.90;;;;;;;;;;8332337;28;20505;-83
2023/04/01 07:01:32;;;;;;;11.32;5.97;;;;;;;;;;8332297;28;20045;-81
2023/04/01 07:05:36;;;;;;;9.43;5.20;;;;;;;;;;8331710;28;20053;-80
2023/04/01 07:09:43;;;;;;;9.38;4.85;;;;;;;;;;8332482;28;20417;-79
2023/04/01 07:13:52;;;;;;;10.82;5.68;;;;;;;;;;8332397;28;20371;-80
2023/04/01 07:17:59;;;;;;;9.18;5.20;;;;;;;;;;8318226;28;20041;-81
2023/04/01 07:22:07;;;;;;;8.85;5.13;;;;;;;;;;8332019;28;20049;-90
2023/04/01 07:26:17;;;;;;;10.20;5.50;;;;;;;;;;8323129;28;20049;-80
2023/04/01 07:30:22;;;;;;;8.88;5.35;;;;;;;;;;8331508;28;20125;-79
2023/04/01 07:34:27;;;;;;;11.43;4.68;;;;;;;;;;8331215;28;20480;-79
2023/04/01 07:38:43;;;;;;;11.45;5.53;;;;;;;;;;8330573;28;20057;-82
2023/04/01 07:43:02;;;;;;;9.30;5.18;;;;;;;;;;8331652;28;20092;-79
2023/04/01 07:47:16;;;;;;;8.35;4.47;;;;;;;;;;8330499;28;20045;-84
2023/04/01 07:51:25;;;;;;;11.73;6.45;;;;;;;;;;8330359;28;20435;-80
2023/04/01 07:55:40;;;;;;;8.15;4.60;;;;;;;;;;8331377;28;20093;-81
2023/04/01 07:59:52;;;;;;;13.52;6.80;;;;;;;;;;8330945;28;20050;-80
2023/04/01 08:04:13;;;;;;;11.02;4.35;;;;;;;;;;8330747;28;20045;-82
2023/04/01 08:08:23;;;;;;;8.15;4.20;;;;;;;;;;8330873;28;20102;-80
2023/04/01 08:12:41;;;;;;;9.77;4.22;;;;;;;;;;8329814;28;20050;-83
2023/04/01 08:16:50;;;;;;;6.55;3.50;;;;;;;;;;8329741;28;20073;-79
2023/04/01 08:20:58;;;;;;;5.20;3.58;;;;;;;;;;8329661;28;20065;-86
2023/04/01 08:25:07;;;;;;;5.72;2.88;;;;;;;;;;8330341;28;20519;-80
2023/04/01 08:29:15;;;;;;;5.72;2.40;;;;;;;;;;8306035;28;20080;-79
2023/04/01 08:33:25;;;;;;;5.00;2.80;;;;;;;;;;8330394;28;20132;-79
2023/04/01 08:37:32;;;;;;;7.57;5.38;;;;;;;;;;8317223;28;20053;-80
2023/04/01 08:42:00;;;;;;;6.40;3.20;;;;;;;;;;8329741;28;20065;-80
2023/04/01 08:46:20;;;;;;;6.05;3.90;;;;;;;;;;8330069;28;20125;-84
2023/04/01 08:50:45;;;;;;;4.82;3.78;;;;;;;;;;8307751;28;20057;-80
2023/04/01 08:55:12;;;;;;;5.70;3.80;;;;;;;;;;8330207;28;20049;-80
2023/04/01 08:59:31;;;;;;;7.07;3.35;;;;;;;;;;8329801;28;20050;-86
2023/04/01 09:03:51;;;;;;;5.72;3.70;;;;;;;;;;8334080;28;20042;-81
2023/04/01 09:08:04;;;;;;;5.25;3.78;;;;;;;;;;8336520;28;20184;-89
2023/04/01 09:12:31;;;;;;;6.80;4.10;;;;;;;;;;8335647;28;20038;-79
2023/04/01 09:17:08;;;;;;;7.07;3.90;;;;;;;;;;8330980;28;20045;-78
2023/04/01 09:21:40;;;;;;;5.20;3.83;;;;;;;;;;8305789;28;20076;-79
2023/04/01 09:25:54;;;;;;;6.25;3.72;;;;;;;;;;8313391;28;20065;-80
2023/04/01 09:30:28;;;;;;;5.97;3.22;;;;;;;;;;8323486;28;20069;-78
2023/04/01 09:34:55;;;;;;;5.57;2.72;;;;;;;;;;8335366;28;20080;-83
2023/04/01 09:39:13;;;;;;;5.65;3.50;;;;;;;;;;8313845;28;20508;-79
2023/04/01 09:43:27;;;;;;;6.07;3.70;;;;;;;;;;8334916;28;20049;-83
2023/04/01 09:47:46;;;;;;;6.28;3.50;;;;;;;;;;8334860;28;20056;-79
2023/04/01 09:52:03;;;;;;;11.43;5.25;;;;;;;;;;8335071;28;20398;-80
2023/04/01 09:56:57;;;;;;;11.25;5.80;;;;;;;;;;8334805;28;20481;-87
2023/04/01 10:01:39;;;;;;;7.60;4.32;;;;;;;;;;8334275;28;20045;-79
2023/04/01 10:06:18;;;;;;;4.78;3.40;;;;;;;;;;8329732;28;20105;-79
2023/04/01 10:10:55;;;;;;;7.57;4.38;;;;;;;;;;8334494;28;20124;-83
2023/04/01 10:15:37;;;;;;;6.75;4.13;;;;;;;;;;8314436;28;20061;-79
2023/04/01 10:20:10;;;;;;;6.80;3.33;;;;;;;;;;8335283;28;20123;-89
2023/04/01 10:24:34;;;;;;;7.97;4.85;;;;;;;;;;8332905;28;20085;-82
2023/04/01 10:29:21;;;;;;;6.38;4.20;;;;;;;;;;8333977;28;20107;-80
2023/04/01 10:33:52;;;;;;;9.25;5.57;;;;;;;;;;8323200;28;20045;-87
2023/04/01 10:38:21;;;;;;;12.43;6.80;;;;;;;;;;8333342;28;20053;-88
2023/04/01 10:42:55;;;;;;;14.15;7.03;;;;;;;;;;8333174;28;20042;-79
2023/04/01 10:47:16;;;;;;;9.63;5.90;;;;;;;;;;8332607;28;20065;-80
2023/04/01 10:51:34;;;;;;;5.63;4.07;;;;;;;;;;8333186;28;20068;-80
2023/04/01 10:56:01;;;;;;;10.05;6.35;;;;;;;;;;8333164;28;20060;-79
2023/04/01 11:00:28;;;;;;;6.40;4.03;;;;;;;;;;8320171;28;20119;-79
2023/04/01 11:05:04;;;;;;;6.28;4.38;;;;;;;;;;8332406;28;20037;-79
2023/04/01 11:09:45;;;;;;;4.95;3.28;;;;;;;;;;8332126;28;20438;-81
2023/04/01 11:14:44;;;;;;;5.30;3.28;;;;;;;;;;8331779;28;20044;-81
2023/04/01 11:19:38;;;;;;;2.78;2.17;;;;;;;;;;8332406;28;20049;-85
2023/04/01 11:23:55;;;;;;;5.70;4.03;;;;;;;;;;8331887;28;20136;-80
2023/04/01 11:28:24;;;;;;;9.57;4.90;;;;;;;;;;8331755;28;20049;-79
2023/04/01 11:32:45;;;;;;;5.55;3.45;;;;;;;;;;8312510;28;20056;-80
2023/04/01 11:36:59;;;;;;;3.95;2.60;;;;;;;;;;8331255;28;20050;-78
2023/04/01 11:41:13;;;;;;;5.18;2.92;;;;;;;;;;8331451;28;20081;-78
2023/04/01 11:45:36;;;;;;;6.13;3.00;;;;;;;;;;8331098;28;20041;-89
2023/04/01 11:49:51;;;;;;;7.45;4.88;;;;;;;;;;8326959;28;20045;-88
2023/04/01 11:54:05;;;;;;;8.32;4.80;;;;;;;;;;8305529;28;20050;-80
2023/04/01 11:58:42;;;;;;;5.85;2.78;;;;;;;;;;8324612;28;20034;-84
2023/04/01 12:03:03;;;;;;;7.57;3.97;;;;;;;;;;8293734;28;20045;-81
2023/04/01 12:07:20;;;;;;;6.93;4.30;;;;;;;;;;8301938;28;20068;-81
2023/04/01 12:11:31;;;;;;;8.63;4.63;;;;;;;;;;8306451;28;20116;-80
2023/04/01 12:15:48;;;;;;;6.82;3.00;;;;;;;;;;8296700;28;20490;-80
2023/04/01 12:19:58;;;;;;;7.65;4.03;;;;;;;;;;8292302;28;20053;-81
2023/04/01 12:24:28;;;;;;;18.95;9.52;;;;;;;;;;8292986;28;20640;-83
2023/04/01 12:28:42;;;;;;;4.28;2.60;;;;;;;;;;8287224;28;20696;-83
2023/04/01 12:32:54;;;;;;;4.95;2.95;;;;;;;;;;8289144;28;20068;-81
2023/04/01 12:37:08;;;;;;;3.22;2.05;;;;;;;;;;8285656;28;20086;-83
2023/04/01 12:41:20;;;;;;;3.72;2.78;;;;;;;;;;8277424;28;20046;-80
2023/04/01 12:45:31;;;;;;;3.60;2.35;;;;;;;;;;8291727;28;20058;-81
2023/04/01 12:49:56;;;;;;;4.20;2.63;;;;;;;;;;8290912;28;20042;-84
2023/04/01 12:54:44;;;;;;;9.18;3.65;;;;;;;;;;8281746;28;20049;-81
2023/04/01 12:59:16;;;;;;;6.18;3.40;;;;;;;;;;8275995;28;20383;-81
2023/04/01 13:03:45;;;;;;;7.75;5.20;;;;;;;;;;8300577;28;20052;-81
2023/04/01 13:07:58;;;;;;;20.73;13.88;;;;;;;;;;8289177;28;20414;-80
2023/04/01 13:12:22;;;;;;;19.60;10.98;;;;;;;;;;8292953;28;20065;-87
2023/04/01 13:16:32;;;;;;;21.38;9.00;;;;;;;;;;8280648;28;20046;-80
2023/04/01 13:20:50;;;;;;;12.90;5.70;;;;;;;;;;8306868;28;20454;-83
2023/04/01 13:25:00;;;;;;;7.80;4.75;;;;;;;;;;8275255;28;20058;-81
2023/04/01 13:29:12;;;;;;;7.93;3.25;;;;;;;;;;8279335;28;20121;-80
2023/04/01 13:33:19;;;;;;;;;;;;;;;;;;8288241;28;20050;-86
2023/04/01 13:37:44;;;;;;;5.72;2.83;;;;;;;;;;8295161;28;20386;-79
2023/04/01 13:42:13;;;;;;;4.55;2.60;;;;;;;;;;8283732;28;20053;-86
2023/04/01 13:46:42;;;;;;;4.25;2.00;;;;;;;;;;8295719;28;20553;-82
2023/04/01 13:51:08;;;;;;;12.32;6.63;;;;;;;;;;8284976;28;20042;-81
2023/04/01 13:55:30;;;;;;;11.23;6.75;;;;;;;;;;8297762;28;20600;-81
2023/04/01 14:00:05;;;;;;;8.15;3.97;;;;;;;;;;8295924;28;20041;-88
2023/04/01 14:04:48;;;;;;;6.88;3.40;;;;;;;;;;8265208;28;20584;-88
2023/04/01 14:09:24;;;;;;;7.93;3.92;;;;;;;;;;8284067;28;20482;-80
2023/04/01 14:13:35;;;;;;;251.05;60.30;;;;;;;;;;8300166;28;20057;-86
2023/04/01 14:18:03;;;;;;;58.53;42.43;;;;;;;;;;8289507;28;20053;-84
2023/04/01 14:22:17;;;;;;;17.88;13.35;;;;;;;;;;8293082;28;20108;-82
2023/04/01 14:26:59;;;;;;;13.25;7.25;;;;;;;;;;8298677;28;20054;-82
2023/04/01 14:31:35;;;;;;;9.85;4.97;;;;;;;;;;8288345;28;20831;-80
2023/04/01 14:35:42;;;;;;;9.77;4.82;;;;;;;;;;8302363;28;20497;-81
2023/04/01 14:40:22;;;;;;;28.52;13.90;;;;;;;;;;8303043;28;20089;-81
2023/04/01 14:44:42;;;;;;;10.33;5.77;;;;;;;;;;8299311;28;20057;-83
2023/04/01 14:48:59;;;;;;;17.60;11.02;;;;;;;;;;8294627;28;20061;-84
2023/04/01 14:53:24;;;;;;;9.43;6.07;;;;;;;;;;8293878;28;20053;-80
2023/04/01 14:57:34;;;;;;;12.90;5.80;;;;;;;;;;8307818;28;20107;-82
2023/04/01 15:01:48;;;;;;;9.32;5.65;;;;;;;;;;8305992;28;20400;-83
2023/04/01 15:05:57;;;;;;;10.65;5.28;;;;;;;;;;8294222;28;20552;-81
2023/04/01 15:10:12;;;;;;;7.50;4.68;;;;;;;;;;8299423;28;20045;-83
2023/04/01 15:14:38;;;;;;;10.00;5.43;;;;;;;;;;8293405;28;20045;-80
2023/04/01 15:18:49;;;;;;;13.90;7.15;;;;;;;;;;8299103;28;20054;-81
2023/04/01 15:23:09;;;;;;;38.83;22.30;;;;;;;;;;8293900;28;20104;-85
2023/04/01 15:27:28;;;;;;;17.38;8.07;;;;;;;;;;8293786;28;20141;-80
2023/04/01 15:31:38;;;;;;;17.70;9.73;;;;;;;;;;8293384;28;20053;-80
2023/04/01 15:35:47;;;;;;;32.83;17.63;;;;;;;;;;8298348;28;20058;-81
2023/04/01 15:39:58;;;;;;;73.40;33.90;;;;;;;;;;8286120;28;20177;-80
2023/04/01 15:44:02;;;;;;;39.08;23.52;;;;;;;;;;8293738;28;20076;-84
2023/04/01 15:48:28;;;;;;;166.95;57.55;;;;;;;;;;8293145;28;20057;-80
2023/04/01 15:52:42;;;;;;;58.35;23.85;;;;;;;;;;8290674;28;20046;-90
2023/04/01 15:57:02;;;;;;;466.02;147.00;;;;;;;;;;8282634;28;20049;-83
2023/04/01 16:01:17;;;;;;;89.97;29.83;;;;;;;;;;8286697;28;20128;-85
2023/04/01 16:05:34;;;;;;;175.40;51.55;;;;;;;;;;8293342;28;20050;-81
2023/04/01 16:09:49;;;;;;;74.43;30.05;;;;;;;;;;8286470;28;20045;-80
2023/04/01 16:14:05;;;;;;;47.22;22.45;;;;;;;;;;8292179;28;20095;-86
2023/04/01 16:18:28;;;;;;;183.43;48.03;;;;;;;;;;8282371;28;20073;-84
2023/04/01 16:22:35;;;;;;;36.15;17.88;;;;;;;;;;8287897;28;20049;-88
2023/04/01 16:26:44;;;;;;;93.10;30.60;;;;;;;;;;8291040;28;20061;-81
2023/04/01 16:30:56;;;;;;;149.77;49.20;;;;;;;;;;8292609;28;20046;-81
2023/04/01 16:35:14;;;;;;;70.20;27.83;;;;;;;;;;8285442;28;20050;-80
2023/04/01 16:39:40;;;;;;;58.00;24.42;;;;;;;;;;8303742;28;20508;-85
2023/04/01 16:43:48;;;;;;;40.65;20.42;;;;;;;;;;8294805;28;20053;-83
2023/04/01 16:47:59;;;;;;;67.97;28.08;;;;;;;;;;8288073;28;20173;-85
2023/04/01 16:52:16;;;;;;;144.93;46.97;;;;;;;;;;8286338;28;20458;-82
2023/04/01 16:56:24;;;;;;;93.70;30.00;;;;;;;;;;8298856;28;20042;-85
2023/04/01 17:00:32;;;;;;;66.10;27.88;;;;;;;;;;8303378;28;20046;-81
2023/04/01 17:04:44;;;;;;;99.75;36.65;;;;;;;;;;8282137;28;20053;-86
2023/04/01 17:09:17;;;;;;;83.40;35.45;;;;;;;;;;8282087;28;20085;-87
2023/04/01 17:13:37;;;;;;;149.00;59.55;;;;;;;;;;8292107;28;20087;-82
2023/04/01 17:17:50;;;;;;;67.32;31.42;;;;;;;;;;8285504;28;20084;-86
2023/04/01 17:22:06;;;;;;;86.28;42.58;;;;;;;;;;8283241;28;20047;-84
2023/04/01 17:26:21;;;;;;;51.88;23.33;;;;;;;;;;8285830;28;20129;-81
2023/04/01 17:30:34;;;;;;;70.47;39.83;;;;;;;;;;8295184;28;20050;-81
2023/04/01 17:34:49;;;;;;;79.05;41.60;;;;;;;;;;8299446;28;20049;-83
2023/04/01 17:39:11;;;;;;;32.60;20.48;;;;;;;;;;8303201;28;20490;-81
2023/04/01 17:43:24;;;;;;;37.60;21.90;;;;;;;;;;8285657;28;20434;-84
2023/04/01 17:47:38;;;;;;;28.27;14.63;;;;;;;;;;8284848;28;20517;-82
2023/04/01 17:51:46;;;;;;;43.25;22.40;;;;;;;;;;8301861;28;20049;-83
2023/04/01 17:56:14;;;;;;;27.88;16.83;;;;;;;;;;8292129;28;20046;-81
2023/04/01 18:00:26;;;;;;;36.22;19.55;;;;;;;;;;8291676;28;20500;-81
2023/04/01 18:04:45;;;;;;;19.85;12.40;;;;;;;;;;8292206;28;20037;-81
2023/04/01 18:09:02;;;;;;;24.25;14.20;;;;;;;;;;8297215;28;20050;-81
2023/04/01 18:13:36;;;;;;;27.08;15.07;;;;;;;;;;8280026;28;20093;-88
2023/04/01 18:17:52;;;;;;;16.73;10.30;;;;;;;;;;8289562;28;20049;-81
2023/04/01 18:22:04;;;;;;;26.02;14.23;;;;;;;;;;8285046;28;20128;-81
2023/04/01 18:26:12;;;;;;;29.37;16.03;;;;;;;;;;8307454;28;20046;-80
2023/04/01 18:30:24;;;;;;;27.98;14.07;;;;;;;;;;8332460;28;20045;-82
2023/04/01 18:34:45;;;;;;;34.42;17.45;;;;;;;;;;8331755;28;20413;-81
2023/04/01 18:38:54;;;;;;;29.50;14.23;;;;;;;;;;8332032;28;20504;-81
2023/04/01 18:43:12;;;;;;;32.70;14.45;;;;;;;;;;8332287;28;20041;-82
2023/04/01 18:47:29;;;;;;;27.48;15.55;;;;;;;;;;8332220;28;20135;-80
2023/04/01 18:51:41;;;;;;;18.00;9.68;;;;;;;;;;8331432;28;20041;-80
2023/04/01 18:55:51;;;;;;;9.02;5.82;;;;;;;;;;8331559;28;20049;-82
2023/04/01 19:00:04;;;;;;;18.83;11.50;;;;;;;;;;8331652;28;20536;-80
2023/04/01 19:04:22;;;;;;;19.85;8.88;;;;;;;;;;8331834;28;20052;-84
2023/04/01 19:08:31;;;;;;;21.33;11.48;;;;;;;;;;8331365;28;20187;-82
2023/04/01 19:12:41;;;;;;;15.65;9.82;;;;;;;;;;8331261;28;20082;-87
2023/04/01 19:16:53;;;;;;;16.08;7.80;;;;;;;;;;8331275;28;20530;-82
2023/04/01 19:21:03;;;;;;;11.80;7.03;;;;;;;;;;8304736;28;20073;-81
2023/04/01 19:25:25;;;;;;;12.05;7.15;;;;;;;;;;8330252;28;20046;-83
2023/04/01 19:29:45;;;;;;;12.63;7.75;;;;;;;;;;8330946;28;20080;-87
2023/04/01 19:34:03;;;;;;;13.65;7.55;;;;;;;;;;8329707;28;20068;-90
2023/04/01 19:38:21;;;;;;;13.35;7.10;;;;;;;;;;8329605;28;20057;-81
2023/04/01 19:42:33;;;;;;;11.73;6.28;;;;;;;;;;8330521;28;20395;-81
2023/04/01 19:46:42;;;;;;;10.23;6.13;;;;;;;;;;8324559;28;20037;-80
2023/04/01 19:50:51;;;;;;;10.43;6.63;;;;;;;;;;8330650;28;20524;-80
2023/04/01 19:55:05;;;;;;;10.95;6.55;;;;;;;;;;8330090;28;20051;-81
2023/04/01 19:59:20;;;;;;;12.98;7.35;;;;;;;;;;8329513;28;20048;-81
2023/04/01 20:03:38;;;;;;;16.35;9.20;;;;;;;;;;8318139;28;20049;-82
2023/04/01 20:07:49;;;;;;;17.58;9.40;;;;;;;;;;8314013;28;20092;-81
2023/04/01 20:12:06;;;;;;;16.17;9.25;;;;;;;;;;8295140;28;20524;-87
2023/04/01 20:16:15;;;;;;;16.05;8.85;;;;;;;;;;8278487;28;20048;-82
2023/04/01 20:20:23;;;;;;;19.77;9.50;;;;;;;;;;8329469;28;20477;-83
2023/04/01 20:24:31;;;;;;;15.70;9.15;;;;;;;;;;8329040;28;20042;-82
2023/04/01 20:28:46;;;;;;;17.00;9.35;;;;;;;;;;8329319;28;20512;-83
2023/04/01 20:33:07;;;;;;;15.27;8.75;;;;;;;;;;8328980;28;20057;-85
2023/04/01 20:37:31;;;;;;;17.55;9.50;;;;;;;;;;8329259;28;20412;-82
2023/04/01 20:41:44;;;;;;;14.07;8.45;;;;;;;;;;8325359;28;20117;-83
2023/04/01 20:45:57;;;;;;;14.18;7.93;;;;;;;;;;8329320;28;20405;-81
2023/04/01 20:50:06;;;;;;;;;;;;;;;;;;8327571;28;20120;-81
2023/04/01 20:54:45;;;;;;;15.02;8.32;;;;;;;;;;8327960;28;19921;-82
2023/04/01 20:58:57;;;;;;;15.48;8.30;;;;;;;;;;8300631;28;20046;-81
2023/04/01 21:03:17;;;;;;;15.18;8.48;;;;;;;;;;8335131;28;20069;-81
2023/04/01 21:07:31;;;;;;;16.40;8.88;;;;;;;;;;8335033;28;20080;-82
2023/04/01 21:11:42;;;;;;;15.90;8.40;;;;;;;;;;8334660;28;20444;-82
2023/04/01 21:15:55;;;;;;;14.82;8.07;;;;;;;;;;8334999;28;20048;-81
2023/04/01 21:20:18;;;;;;;13.07;8.43;;;;;;;;;;8335046;28;20047;-80
2023/04/01 21:24:59;;;;;;;14.77;8.52;;;;;;;;;;8334390;28;20098;-82
2023/04/01 21:29:29;;;;;;;15.40;8.60;;;;;;;;;;8313172;28;20490;-83
2023/04/01 21:33:46;;;;;;;13.98;8.13;;;;;;;;;;8322219;28;20042;-81
2023/04/01 21:38:05;;;;;;;18.88;9.25;;;;;;;;;;8322441;28;20498;-81
2023/04/01 21:42:30;;;;;;;24.40;12.27;;;;;;;;;;8333976;28;20167;-82
2023/04/01 21:47:18;;;;;;;20.52;10.77;;;;;;;;;;8319354;28;20471;-81
2023/04/01 21:51:58;;;;;;;18.83;10.15;;;;;;;;;;8333777;28;20041;-82
2023/04/01 21:56:40;;;;;;;18.80;10.05;;;;;;;;;;8304385;28;20060;-85
2023/04/01 22:00:53;;;;;;;18.67;10.27;;;;;;;;;;8310315;28;20048;-84
2023/04/01 22:05:01;;;;;;;18.52;10.00;;;;;;;;;;8292925;28;20054;-84
2023/04/01 22:09:11;;;;;;;21.42;10.85;;;;;;;;;;8293427;28;20056;-80
2023/04/01 22:13:19;;;;;;;22.90;12.52;;;;;;;;;;8314479;28;20102;-81
2023/04/01 22:17:30;;;;;;;20.30;10.73;;;;;;;;;;8303093;28;20045;-87
2023/04/01 22:21:41;;;;;;;19.05;10.52;;;;;;;;;;8301817;28;20080;-81
2023/04/01 22:25:49;;;;;;;18.08;10.27;;;;;;;;;;8295375;28;20053;-87
2023/04/01 22:30:05;;;;;;;20.27;10.05;;;;;;;;;;8299047;28;20075;-82
2023/04/01 22:34:16;;;;;;;18.05;9.63;;;;;;;;;;8297926;28;20050;-82
2023/04/01 22:38:37;;;;;;;12.55;7.50;;;;;;;;;;8323288;28;20080;-87
2023/04/01 22:42:45;;;;;;;17.45;8.98;;;;;;;;;;8331089;28;20072;-83
2023/04/01 22:46:59;;;;;;;15.68;7.78;;;;;;;;;;8332287;28;20057;-81
2023/04/01 22:51:12;;;;;;;14.02;7.65;;;;;;;;;;8307830;28;20042;-82
2023/04/01 22:55:20;;;;;;;14.23;7.90;;;;;;;;;;8293062;28;20048;-86
2023/04/01 22:59:27;;;;;;;22.17;10.52;;;;;;;;;;8293362;28;20517;-84
2023/04/01 23:03:33;;;;;;;13.13;7.10;;;;;;;;;;8286072;28;20050;-81
2023/04/01 23:07:48;;;;;;;15.23;8.98;;;;;;;;;;8308918;28;20479;-82
2023/04/01 23:11:55;;;;;;;14.80;7.93;;;;;;;;;;8332022;28;20049;-84
2023/04/01 23:15:59;;;;;;;16.10;7.88;;;;;;;;;;8302221;28;20073;-81
2023/04/01 23:20:12;;;;;;;14.40;7.30;;;;;;;;;;8286104;28;20046;-86
2023/04/01 23:24:26;;;;;;;13.70;7.82;;;;;;;;;;8310085;28;20045;-81
2023/04/01 23:28:46;;;;;;;17.75;8.65;;;;;;;;;;8331145;28;20045;-81
2023/04/01 23:32:49;;;;;;;14.30;8.07;;;;;;;;;;8330760;28;20683;-85
2023/04/01 23:36:54;;;;;;;17.35;8.38;;;;;;;;;;8329782;28;20061;-84
2023/04/01 23:40:59;;;;;;;14.98;8.05;;;;;;;;;;8330024;28;20045;-81
2023/04/01 23:45:05;;;;;;;13.30;7.60;;;;;;;;;;8330724;28;20375;-83
2023/04/01 23:49:15;;;;;;;11.20;6.72;;;;;;;;;;8329928;28;20049;-84
2023/04/01 23:53:19;;;;;;;13.80;6.40;;;;;;;;;;8304481;28;20124;-83
2023/04/01 23:57:30;;;;;;;10.27;6.07;;;;;;;;;;8329641;28;20045;-81
